createdAt,value
2018-04-22T00:01:36.207Z,14.80
2018-04-22T00:04:03.168Z,14.80
2018-04-22T00:06:30.182Z,14.70
2018-04-22T00:08:56.406Z,14.70
2018-04-22T00:11:22.631Z,14.70
2018-04-22T00:13:48.895Z,14.70
2018-04-22T00:16:15.130Z,14.60
2018-04-22T00:18:42.465Z,14.70
2018-04-22T00:21:08.717Z,14.60
2018-04-22T00:23:34.909Z,14.60
2018-04-22T00:26:01.141Z,14.50
2018-04-22T00:28:27.392Z,14.60
2018-04-22T00:30:53.617Z,14.60
2018-04-22T00:33:19.857Z,14.50
2018-04-22T00:35:46.085Z,14.50
2018-04-22T00:38:12.307Z,14.50
2018-04-22T00:40:38.514Z,14.40
2018-04-22T00:43:05.497Z,14.40
2018-04-22T00:45:31.718Z,14.40
2018-04-22T00:47:58.682Z,14.50
2018-04-22T00:50:25.652Z,14.50
2018-04-22T00:52:51.878Z,14.50
2018-04-22T00:55:18.859Z,14.50
2018-04-22T00:57:45.114Z,14.40
2018-04-22T01:00:11.391Z,14.40
2018-04-22T01:02:37.594Z,14.40
2018-04-22T01:05:03.830Z,14.30
2018-04-22T01:07:30.074Z,14.30
2018-04-22T01:09:56.296Z,14.30
2018-04-22T01:12:22.572Z,14.20
2018-04-22T01:14:48.798Z,14.20
2018-04-22T01:17:15.043Z,14.20
2018-04-22T01:19:41.731Z,14.10
2018-04-22T01:22:07.970Z,14.10
2018-04-22T01:24:34.184Z,14.10
2018-04-22T01:27:00.423Z,14.10
2018-04-22T01:29:26.638Z,14.00
2018-04-22T01:31:52.854Z,14.00
2018-04-22T01:34:19.828Z,13.90
2018-04-22T01:36:46.050Z,13.90
2018-04-22T01:39:13.012Z,13.80
2018-04-22T01:41:39.993Z,13.80
2018-04-22T01:44:06.199Z,13.80
2018-04-22T01:46:32.414Z,13.70
2018-04-22T01:48:59.382Z,13.70
2018-04-22T01:51:25.623Z,13.70
2018-04-22T01:53:51.845Z,13.60
2018-04-22T01:56:18.055Z,13.60
2018-04-22T01:58:44.274Z,13.60
2018-04-22T02:01:11.284Z,13.60
2018-04-22T02:03:37.542Z,13.60
2018-04-22T02:06:03.803Z,13.50
2018-04-22T02:08:30.777Z,13.50
2018-04-22T02:10:57.783Z,13.50
2018-04-22T02:13:24.007Z,13.50
2018-04-22T02:15:50.213Z,13.50
2018-04-22T02:18:17.209Z,13.50
2018-04-22T02:20:44.172Z,13.40
2018-04-22T02:23:14.609Z,13.40
2018-04-22T02:25:40.856Z,13.40
2018-04-22T02:28:07.072Z,13.30
2018-04-22T02:30:33.285Z,13.30
2018-04-22T02:33:00.262Z,13.40
2018-04-22T02:35:27.593Z,13.40
2018-04-22T02:37:54.565Z,13.40
2018-04-22T02:40:21.547Z,13.30
2018-04-22T02:42:47.786Z,13.30
2018-04-22T02:45:14.002Z,13.30
2018-04-22T02:47:40.254Z,13.30
2018-04-22T02:50:13.246Z,13.20
2018-04-22T02:52:40.209Z,13.10
2018-04-22T02:55:06.464Z,13.10
2018-04-22T02:57:32.683Z,13.10
2018-04-22T02:59:59.695Z,13.10
2018-04-22T03:02:25.918Z,13.10
2018-04-22T03:04:52.150Z,13.10
2018-04-22T03:07:18.384Z,13.10
2018-04-22T03:09:44.611Z,13.10
2018-04-22T03:12:10.840Z,13.10
2018-04-22T03:14:37.793Z,13.00
2018-04-22T03:17:04.771Z,13.00
2018-04-22T03:19:30.975Z,13.00
2018-04-22T03:21:57.345Z,13.00
2018-04-22T03:24:23.590Z,13.00
2018-04-22T03:26:49.806Z,13.30
2018-04-22T03:29:16.779Z,13.80
2018-04-22T03:31:43.007Z,13.80
2018-04-22T03:34:09.951Z,14.00
2018-04-22T03:36:36.925Z,14.00
2018-04-22T03:39:03.209Z,13.90
2018-04-22T03:41:29.425Z,13.90
2018-04-22T03:43:55.642Z,13.80
2018-04-22T03:46:22.634Z,13.80
2018-04-22T03:48:48.870Z,13.80
2018-04-22T03:51:15.086Z,13.90
2018-04-22T03:53:41.320Z,13.90
2018-04-22T03:56:08.282Z,13.90
2018-04-22T03:58:35.270Z,13.90
2018-04-22T04:01:01.542Z,13.90
2018-04-22T04:03:27.783Z,13.90
2018-04-22T04:05:53.996Z,13.80
2018-04-22T04:08:20.213Z,13.80
2018-04-22T04:10:46.432Z,13.90
2018-04-22T04:13:13.412Z,13.50
2018-04-22T04:15:39.666Z,13.50
2018-04-22T04:21:22.852Z,13.10
2018-04-22T04:27:14.011Z,12.60
2018-04-22T04:29:40.254Z,12.60
2018-04-22T04:32:06.489Z,12.50
2018-04-22T04:34:32.709Z,12.40
2018-04-22T04:36:58.929Z,12.40
2018-04-22T04:39:25.873Z,12.40
2018-04-22T04:41:52.131Z,12.40
2018-04-22T04:44:19.097Z,12.30
2018-04-22T04:46:46.059Z,12.30
2018-04-22T04:49:12.307Z,12.30
2018-04-22T04:51:38.505Z,12.30
2018-04-22T04:54:04.721Z,12.40
2018-04-22T04:56:30.987Z,12.40
2018-04-22T04:58:57.215Z,12.40
2018-04-22T05:01:23.457Z,12.40
2018-04-22T05:03:49.707Z,12.50
2018-04-22T05:06:15.927Z,12.60
2018-04-22T05:08:42.151Z,12.60
2018-04-22T05:11:08.419Z,12.50
2018-04-22T05:13:34.629Z,12.60
2018-04-22T05:16:00.870Z,12.60
2018-04-22T05:18:27.149Z,12.60
2018-04-22T05:20:53.391Z,12.70
2018-04-22T05:23:19.606Z,12.70
2018-04-22T05:25:46.357Z,12.80
2018-04-22T05:28:12.573Z,12.80
2018-04-22T05:30:38.801Z,12.90
2018-04-22T05:33:05.057Z,13.00
2018-04-22T05:35:31.264Z,13.10
2018-04-22T05:37:58.228Z,13.20
2018-04-22T05:40:25.198Z,13.30
2018-04-22T05:42:51.426Z,13.30
2018-04-22T05:45:17.643Z,13.40
2018-04-22T05:47:43.884Z,13.50
2018-04-22T05:50:10.101Z,13.60
2018-04-22T05:52:36.342Z,13.60
2018-04-22T05:55:02.609Z,13.70
2018-04-22T05:57:28.834Z,13.80
2018-04-22T05:59:55.183Z,13.90
2018-04-22T06:02:21.425Z,14.00
2018-04-22T06:04:47.682Z,14.20
2018-04-22T06:07:13.906Z,14.40
2018-04-22T06:09:40.198Z,14.60
2018-04-22T06:12:06.480Z,14.70
2018-04-22T06:14:32.720Z,14.80
2018-04-22T06:16:58.986Z,14.90
2018-04-22T06:19:25.182Z,15.00
2018-04-22T06:21:51.400Z,15.10
2018-04-22T06:24:17.658Z,15.30
2018-04-22T06:26:44.852Z,15.40
2018-04-22T06:29:11.082Z,15.40
2018-04-22T06:31:37.335Z,15.60
2018-04-22T06:34:03.563Z,15.70
2018-04-22T06:36:29.816Z,15.80
2018-04-22T06:38:56.086Z,15.90
2018-04-22T06:41:23.044Z,16.10
2018-04-22T06:43:49.269Z,16.10
2018-04-22T06:46:15.502Z,16.20
2018-04-22T06:48:41.781Z,16.30
2018-04-22T06:51:08.032Z,16.40
2018-04-22T06:53:34.288Z,16.40
2018-04-22T06:56:00.502Z,16.40
2018-04-22T06:58:26.714Z,16.50
2018-04-22T07:00:53.698Z,16.60
2018-04-22T07:03:19.917Z,16.60
2018-04-22T07:05:48.913Z,16.70
2018-04-22T07:08:15.145Z,16.70
2018-04-22T07:10:41.345Z,16.70
2018-04-22T07:13:07.702Z,16.80
2018-04-22T07:15:33.950Z,16.90
2018-04-22T07:18:00.167Z,16.90
2018-04-22T07:20:26.388Z,17.00
2018-04-22T07:22:52.653Z,17.10
2018-04-22T07:25:18.872Z,17.20
2018-04-22T07:27:45.281Z,17.30
2018-04-22T07:30:11.532Z,17.30
2018-04-22T07:32:37.725Z,17.40
2018-04-22T07:35:03.951Z,17.40
2018-04-22T07:37:30.219Z,17.50
2018-04-22T07:39:56.454Z,17.60
2018-04-22T07:42:22.718Z,17.70
2018-04-22T07:44:48.978Z,17.80
2018-04-22T07:47:15.963Z,18.00
2018-04-22T07:49:42.191Z,18.00
2018-04-22T07:52:09.214Z,18.20
2018-04-22T07:54:35.450Z,18.20
2018-04-22T07:57:01.694Z,18.30
2018-04-22T07:59:27.971Z,18.40
2018-04-22T08:01:55.109Z,18.50
2018-04-22T08:04:21.456Z,18.60
2018-04-22T08:06:47.717Z,18.70
2018-04-22T08:09:13.919Z,18.80
2018-04-22T08:11:40.880Z,19.00
2018-04-22T08:14:07.141Z,19.00
2018-04-22T08:16:33.374Z,19.10
2018-04-22T08:18:59.642Z,19.20
2018-04-22T08:21:25.862Z,19.30
2018-04-22T08:23:52.109Z,19.40
2018-04-22T08:26:19.077Z,19.60
2018-04-22T08:28:45.432Z,19.60
2018-04-22T08:31:11.682Z,19.70
2018-04-22T08:33:37.920Z,19.90
2018-04-22T08:36:04.148Z,19.90
2018-04-22T08:38:30.396Z,20.00
2018-04-22T08:40:56.620Z,20.10
2018-04-22T08:43:23.636Z,20.20
2018-04-22T08:45:49.894Z,20.20
2018-04-22T08:48:16.132Z,20.30
2018-04-22T08:50:42.647Z,20.50
2018-04-22T08:53:09.584Z,20.70
2018-04-22T08:55:35.822Z,20.60
2018-04-22T08:58:02.083Z,20.80
2018-04-22T09:00:28.338Z,20.80
2018-04-22T09:02:54.560Z,20.90
2018-04-22T09:05:20.807Z,21.00
2018-04-22T09:07:47.047Z,21.10
2018-04-22T09:10:13.288Z,21.20
2018-04-22T09:12:39.550Z,21.40
2018-04-22T09:15:05.806Z,21.50
2018-04-22T09:17:32.048Z,21.60
2018-04-22T09:19:59.055Z,21.90
2018-04-22T09:22:25.293Z,21.80
2018-04-22T09:24:51.527Z,22.00
2018-04-22T09:27:17.775Z,22.10
2018-04-22T09:29:44.452Z,22.30
2018-04-22T09:32:11.420Z,22.50
2018-04-22T09:34:37.679Z,22.50
2018-04-22T09:37:04.648Z,22.80
2018-04-22T09:39:31.605Z,22.90
2018-04-22T09:41:57.843Z,22.80
2018-04-22T09:44:24.054Z,22.90
2018-04-22T09:46:50.280Z,23.00
2018-04-22T09:49:16.530Z,23.10
2018-04-22T09:51:42.816Z,23.30
2018-04-22T09:54:09.028Z,23.50
2018-04-22T09:56:35.317Z,23.60
2018-04-22T09:59:01.551Z,23.70
2018-04-22T10:01:33.726Z,23.80
2018-04-22T10:03:59.978Z,23.90
2018-04-22T10:06:26.205Z,24.20
2018-04-22T10:08:52.434Z,24.40
2018-04-22T10:11:19.423Z,24.70
2018-04-22T10:13:45.668Z,24.70
2018-04-22T10:16:11.894Z,24.90
2018-04-22T10:18:38.131Z,25.20
2018-04-22T10:21:04.358Z,25.40
2018-04-22T10:23:30.590Z,25.80
2018-04-22T10:25:57.567Z,26.40
2018-04-22T10:28:23.871Z,26.40
2018-04-22T10:30:50.487Z,26.70
2018-04-22T10:33:16.722Z,27.20
2018-04-22T10:35:42.962Z,27.60
2018-04-22T10:38:09.197Z,27.90
2018-04-22T10:40:35.457Z,28.10
2018-04-22T10:43:01.682Z,28.20
2018-04-22T10:45:27.934Z,28.40
2018-04-22T10:47:54.174Z,28.40
2018-04-22T10:50:20.432Z,28.40
2018-04-22T10:52:46.733Z,28.50
2018-04-22T10:55:13.029Z,28.60
2018-04-22T10:57:39.318Z,28.80
2018-04-22T11:00:05.547Z,29.00
2018-04-22T11:02:31.846Z,29.30
2018-04-22T11:04:58.084Z,29.50
2018-04-22T11:07:25.122Z,30.00
2018-04-22T11:09:51.381Z,29.90
2018-04-22T11:12:17.613Z,30.20
2018-04-22T11:14:43.855Z,30.30
2018-04-22T11:17:10.106Z,30.40
2018-04-22T11:19:36.364Z,30.40
2018-04-22T11:22:02.633Z,30.50
2018-04-22T11:24:28.920Z,30.60
2018-04-22T11:26:55.263Z,30.80
2018-04-22T11:29:21.514Z,30.80
2018-04-22T11:31:48.072Z,30.90
2018-04-22T11:34:14.283Z,31.00
2018-04-22T11:36:40.501Z,31.00
2018-04-22T11:39:06.779Z,31.00
2018-04-22T11:41:33.019Z,31.10
2018-04-22T11:43:59.263Z,31.40
2018-04-22T11:46:25.497Z,31.50
2018-04-22T11:48:51.735Z,31.80
2018-04-22T11:51:17.976Z,32.00
2018-04-22T11:53:44.284Z,32.10
2018-04-22T11:56:10.495Z,32.10
2018-04-22T11:58:37.472Z,32.20
2018-04-22T12:01:03.711Z,32.20
2018-04-22T12:03:29.944Z,32.30
2018-04-22T12:05:56.176Z,32.60
2018-04-22T12:08:23.173Z,32.90
2018-04-22T12:10:49.386Z,32.90
2018-04-22T12:13:15.654Z,33.00
2018-04-22T12:15:41.959Z,33.10
2018-04-22T12:18:08.206Z,33.00
2018-04-22T12:20:34.427Z,33.00
2018-04-22T12:23:00.672Z,32.80
2018-04-22T12:25:27.647Z,32.50
2018-04-22T12:27:53.871Z,32.40
2018-04-22T12:30:20.861Z,32.40
2018-04-22T12:32:47.339Z,32.40
2018-04-22T12:35:13.579Z,32.60
2018-04-22T12:37:39.828Z,33.00
2018-04-22T12:40:06.139Z,33.00
2018-04-22T12:42:32.364Z,32.50
2018-04-22T12:44:58.582Z,32.20
2018-04-22T12:47:25.554Z,32.60
2018-04-22T12:49:51.769Z,32.50
2018-04-22T12:52:18.027Z,32.90
2018-04-22T12:54:44.995Z,33.10
2018-04-22T12:57:11.220Z,33.10
2018-04-22T12:59:37.492Z,33.00
2018-04-22T13:02:03.726Z,33.10
2018-04-22T13:04:29.936Z,33.20
2018-04-22T13:06:56.898Z,33.70
2018-04-22T13:09:23.873Z,33.70
2018-04-22T13:11:50.091Z,33.60
2018-04-22T13:14:17.182Z,33.60
2018-04-22T13:16:43.405Z,33.60
2018-04-22T13:19:10.377Z,33.80
2018-04-22T13:21:36.665Z,33.80
2018-04-22T13:24:02.937Z,34.10
2018-04-22T13:26:29.180Z,34.00
2018-04-22T13:28:56.162Z,33.60
2018-04-22T13:31:22.433Z,33.60
2018-04-22T13:33:48.799Z,33.60
2018-04-22T13:36:15.076Z,33.50
2018-04-22T13:38:42.052Z,33.60
2018-04-22T13:41:08.307Z,33.50
2018-04-22T13:43:34.593Z,33.40
2018-04-22T13:46:01.567Z,33.50
2018-04-22T13:48:28.542Z,33.60
2018-04-22T13:50:54.781Z,33.60
2018-04-22T13:53:20.987Z,33.60
2018-04-22T13:55:47.212Z,33.80
2018-04-22T13:58:13.457Z,34.00
2018-04-22T14:00:39.708Z,33.90
2018-04-22T14:03:05.959Z,33.80
2018-04-22T14:05:32.239Z,33.60
2018-04-22T14:07:58.452Z,33.70
2018-04-22T14:10:24.699Z,33.70
2018-04-22T14:12:50.916Z,33.80
2018-04-22T14:15:17.875Z,33.60
2018-04-22T14:17:44.103Z,33.60
2018-04-22T14:20:10.416Z,33.40
2018-04-22T14:22:36.618Z,33.20
2018-04-22T14:25:02.899Z,33.00
2018-04-22T14:27:29.115Z,32.90
2018-04-22T14:29:55.330Z,33.10
2018-04-22T14:32:22.299Z,33.10
2018-04-22T14:34:48.907Z,33.10
2018-04-22T14:37:15.125Z,33.00
2018-04-22T14:39:41.347Z,33.20
2018-04-22T14:42:07.627Z,33.30
2018-04-22T14:44:46.137Z,33.50
2018-04-22T14:47:12.385Z,33.80
2018-04-22T14:49:38.671Z,34.10
2018-04-22T14:52:04.887Z,34.50
2018-04-22T14:54:31.126Z,34.50
2018-04-22T14:56:57.372Z,34.60
2018-04-22T14:59:23.641Z,34.70
2018-04-22T15:01:49.898Z,34.90
2018-04-22T15:04:16.145Z,34.90
2018-04-22T15:06:42.383Z,34.90
2018-04-22T15:09:08.626Z,34.80
2018-04-22T15:11:34.850Z,34.60
2018-04-22T15:14:01.814Z,34.10
2018-04-22T15:16:28.067Z,34.10
2018-04-22T15:18:54.316Z,34.20
2018-04-22T15:21:20.525Z,34.20
2018-04-22T15:23:46.807Z,34.20
2018-04-22T15:26:13.050Z,34.10
2018-04-22T15:28:39.271Z,34.00
2018-04-22T15:31:05.507Z,34.00
2018-04-22T15:33:31.765Z,34.00
2018-04-22T15:35:58.126Z,34.20
2018-04-22T15:38:24.374Z,34.20
2018-04-22T15:40:50.641Z,34.10
2018-04-22T15:43:17.601Z,34.10
2018-04-22T15:45:43.868Z,34.10
2018-04-22T15:48:10.108Z,34.20
2018-04-22T15:50:36.356Z,34.30
2018-04-22T15:53:02.610Z,34.40
2018-04-22T15:55:28.856Z,34.40
2018-04-22T15:57:55.084Z,34.40
2018-04-22T16:00:21.357Z,34.30
2018-04-22T16:02:47.590Z,34.20
2018-04-22T16:05:13.832Z,33.90
2018-04-22T16:07:40.069Z,33.70
2018-04-22T16:10:06.321Z,33.60
2018-04-22T16:12:32.560Z,33.60
2018-04-22T16:14:58.801Z,33.60
2018-04-22T16:17:25.045Z,33.70
2018-04-22T16:19:51.269Z,33.50
2018-04-22T16:22:17.511Z,33.40
2018-04-22T16:24:43.751Z,33.40
2018-04-22T16:27:09.984Z,33.40
2018-04-22T16:29:36.373Z,33.30
2018-04-22T16:32:03.370Z,33.10
2018-04-22T16:34:29.582Z,33.00
2018-04-22T16:36:55.954Z,33.00
2018-04-22T16:39:22.954Z,32.60
2018-04-22T16:41:49.156Z,32.50
2018-04-22T16:44:15.392Z,32.40
2018-04-22T16:46:41.600Z,32.40
2018-04-22T16:49:08.566Z,32.10
2018-04-22T16:51:34.786Z,32.10
2018-04-22T16:54:01.745Z,31.60
2018-04-22T16:56:28.709Z,31.40
2018-04-22T16:58:55.690Z,31.40
2018-04-22T17:01:21.944Z,31.30
2018-04-22T17:03:48.168Z,31.20
2018-04-22T17:06:14.417Z,31.10
2018-04-22T17:08:40.720Z,31.00
2018-04-22T17:11:06.950Z,30.80
2018-04-22T17:13:33.182Z,30.60
2018-04-22T17:15:59.414Z,30.40
2018-04-22T17:18:25.638Z,30.10
2018-04-22T17:20:51.900Z,29.80
2018-04-22T17:23:18.110Z,29.40
2018-04-22T17:25:44.346Z,28.90
2018-04-22T17:28:10.585Z,28.60
2018-04-22T17:30:37.578Z,28.10
2018-04-22T17:33:03.827Z,27.80
2018-04-22T17:35:30.108Z,27.30
2018-04-22T17:37:56.943Z,26.90
2018-04-22T17:40:23.881Z,26.20
2018-04-22T17:42:50.121Z,26.20
2018-04-22T17:45:16.365Z,25.90
2018-04-22T17:47:42.574Z,25.60
2018-04-22T17:50:08.820Z,25.20
2018-04-22T17:52:35.053Z,24.90
2018-04-22T17:55:02.050Z,24.40
2018-04-22T17:57:29.051Z,24.20
2018-04-22T17:59:55.280Z,24.20
2018-04-22T18:02:21.532Z,24.00
2018-04-22T18:04:47.782Z,23.70
2018-04-22T18:07:14.022Z,23.50
2018-04-22T18:09:40.289Z,23.30
2018-04-22T18:12:07.714Z,22.90
2018-04-22T18:14:34.737Z,22.80
2018-04-22T18:17:00.958Z,22.70
2018-04-22T18:19:27.233Z,22.60
2018-04-22T18:21:54.219Z,22.30
2018-04-22T18:24:20.485Z,22.30
2018-04-22T18:26:46.755Z,22.20
2018-04-22T18:29:13.730Z,21.90
2018-04-22T18:31:40.742Z,21.80
2018-04-22T18:34:07.055Z,21.80
2018-04-22T18:36:33.295Z,21.70
2018-04-22T18:38:59.718Z,21.50
2018-04-22T18:41:26.752Z,21.30
2018-04-22T18:43:53.025Z,21.20
2018-04-22T18:46:19.594Z,21.10
2018-04-22T18:48:45.923Z,21.10
2018-04-22T18:51:12.222Z,20.90
2018-04-22T18:53:38.507Z,20.80
2018-04-22T18:56:05.249Z,20.70
2018-04-22T18:58:31.534Z,20.50
2018-04-22T19:00:58.574Z,20.20
2018-04-22T19:03:24.899Z,20.20
2018-04-22T19:05:51.123Z,20.10
2018-04-22T19:08:18.124Z,19.90
2018-04-22T19:10:44.442Z,19.90
2018-04-22T19:13:10.722Z,19.90
2018-04-22T19:15:37.027Z,19.80
2018-04-22T19:18:03.339Z,19.80
2018-04-22T19:20:29.630Z,19.70
2018-04-22T19:22:55.902Z,19.60
2018-04-22T19:25:22.248Z,19.50
2018-04-22T19:27:48.567Z,19.40
2018-04-22T19:30:14.858Z,19.30
2018-04-22T19:32:41.932Z,19.10
2018-04-22T19:35:08.215Z,19.10
2018-04-22T19:37:34.489Z,19.00
2018-04-22T19:40:01.141Z,19.00
2018-04-22T19:42:27.443Z,18.90
2018-04-22T19:44:53.729Z,18.80
2018-04-22T19:47:20.841Z,18.70
2018-04-22T19:49:47.126Z,18.70
2018-04-22T19:52:14.166Z,18.60
2018-04-22T19:54:40.526Z,18.60
2018-04-22T19:57:06.899Z,18.50
2018-04-22T19:59:33.268Z,18.50
2018-04-22T20:01:59.581Z,18.40
2018-04-22T20:04:25.880Z,18.30
2018-04-22T20:06:52.153Z,18.20
2018-04-22T20:09:19.184Z,18.10
2018-04-22T20:11:45.478Z,18.10
2018-04-22T20:14:11.747Z,18.10
2018-04-22T20:16:39.054Z,18.00
2018-04-22T20:19:05.349Z,18.00
2018-04-22T20:21:31.626Z,17.90
2018-04-22T20:23:59.571Z,17.90
2018-04-22T20:26:25.833Z,17.80
2018-04-22T20:28:52.105Z,17.80
2018-04-22T20:31:19.111Z,17.70
2018-04-22T20:33:45.384Z,17.60
2018-04-22T20:36:12.395Z,17.50
2018-04-22T20:38:38.679Z,17.50
2018-04-22T20:41:05.325Z,17.40
2018-04-22T20:43:31.559Z,17.40
2018-04-22T20:45:57.826Z,17.40
2018-04-22T20:48:24.057Z,17.30
2018-04-22T20:50:50.307Z,17.20
2018-04-22T20:53:16.568Z,17.20
2018-04-22T20:55:42.784Z,17.10
2018-04-22T20:58:09.034Z,17.10
2018-04-22T21:00:35.287Z,17.00
2018-04-22T21:03:02.258Z,17.00
2018-04-22T21:05:28.515Z,16.90
2018-04-22T21:07:54.760Z,16.90
2018-04-22T21:10:21.027Z,16.90
2018-04-22T21:12:47.258Z,16.90
2018-04-22T21:15:13.486Z,16.90
2018-04-22T21:17:40.444Z,16.80
2018-04-22T21:20:06.687Z,16.80
2018-04-22T21:22:32.942Z,16.80
2018-04-22T21:24:59.157Z,16.70
2018-04-22T21:27:25.375Z,16.70
2018-04-22T21:29:52.349Z,16.70
2018-04-22T21:32:18.592Z,16.70
2018-04-22T21:34:44.833Z,16.70
2018-04-22T21:37:11.068Z,16.70
2018-04-22T21:39:37.289Z,16.70
2018-04-22T21:42:04.422Z,16.60
2018-04-22T21:44:30.663Z,16.60
2018-04-22T21:46:56.896Z,16.60
2018-04-22T21:49:23.123Z,16.60
2018-04-22T21:51:49.353Z,16.60
2018-04-22T21:54:15.591Z,16.60
2018-04-22T21:56:41.805Z,16.60
2018-04-22T21:59:08.191Z,16.60
2018-04-22T22:01:34.427Z,16.50
2018-04-22T22:04:00.661Z,16.50
2018-04-22T22:06:26.916Z,16.50
2018-04-22T22:08:53.195Z,16.50
2018-04-22T22:11:20.135Z,16.40
2018-04-22T22:13:46.355Z,16.40
2018-04-22T22:16:12.588Z,16.40
2018-04-22T22:18:38.814Z,16.30
2018-04-22T22:21:05.045Z,16.20
2018-04-22T22:23:31.239Z,16.20
2018-04-22T22:25:58.191Z,16.10
2018-04-22T22:28:24.463Z,16.10
2018-04-22T22:30:50.678Z,16.00
2018-04-22T22:33:16.898Z,16.00
2018-04-22T22:35:43.132Z,16.00
2018-04-22T22:38:09.400Z,16.00
2018-04-22T22:40:36.394Z,15.90
2018-04-22T22:43:03.001Z,15.90
2018-04-22T22:45:29.237Z,15.80
2018-04-22T22:47:55.456Z,15.80
2018-04-22T22:50:21.712Z,15.80
2018-04-22T22:52:47.926Z,15.80
2018-04-22T22:55:14.141Z,15.80
2018-04-22T22:57:40.381Z,15.80
2018-04-22T23:00:06.637Z,15.80
2018-04-22T23:02:32.872Z,15.80
2018-04-22T23:04:59.155Z,15.80
2018-04-22T23:07:25.371Z,15.80
2018-04-22T23:09:51.598Z,15.80
2018-04-22T23:12:17.837Z,15.80
2018-04-22T23:14:44.044Z,15.70
2018-04-22T23:17:11.003Z,15.70
2018-04-22T23:19:37.969Z,15.70
2018-04-22T23:22:04.199Z,15.70
2018-04-22T23:24:31.150Z,15.70
2018-04-22T23:26:58.157Z,15.70
2018-04-22T23:29:24.413Z,15.70
2018-04-22T23:31:50.637Z,15.70
2018-04-22T23:34:16.871Z,15.60
2018-04-22T23:36:43.119Z,15.60
2018-04-22T23:39:09.338Z,15.60
2018-04-22T23:41:35.589Z,15.60
2018-04-22T23:44:02.001Z,15.60
2018-04-22T23:46:28.180Z,15.60
2018-04-22T23:48:54.450Z,15.50
2018-04-22T23:51:20.678Z,15.50
2018-04-22T23:53:46.901Z,15.50
2018-04-22T23:56:13.151Z,15.50
2018-04-22T23:58:39.382Z,15.40
